Time;durP1;ratioP1;P1;durP2;ratioP2;P2;SDS_P1;SDS_P2;PMS_P1;PMS_P2;Temp;Humidity;BMP_temperature;BMP_pressure;BME280_temperature;BME280_humidity;BME280_pressure;Samples;Min_cycle;Max_cycle;Signal;HPM_P1;HPM_P2
2023/04/09 00:01:41;;;;;;;15.37;9.30;;;7.90;99.90;;;;;;5018482;28;20413;-87
2023/04/09 00:04:07;;;;;;;14.27;8.37;;;;;;;;;;5018494;28;20467;-87
2023/04/09 00:06:32;;;;;;;16.17;9.87;;;7.80;99.90;;;;;;5018105;28;20631;-87
2023/04/09 00:08:58;;;;;;;16.17;8.53;;;7.80;99.90;;;;;;5016763;28;20437;-86
2023/04/09 00:11:24;;;;;;;15.87;8.87;;;7.70;99.90;;;;;;5018740;28;20592;-86
2023/04/09 00:13:50;;;;;;;16.75;8.38;;;;;;;;;;5019384;28;20824;-87
2023/04/09 00:16:16;;;;;;;16.50;8.77;;;7.70;99.90;;;;;;5018356;28;20194;-87
2023/04/09 00:18:42;;;;;;;14.93;8.50;;;;;;;;;;5017872;28;20409;-86
2023/04/09 00:21:08;;;;;;;16.70;8.27;;;;;;;;;;5017269;28;20206;-85
2023/04/09 00:23:34;;;;;;;14.05;8.23;;;7.80;99.90;;;;;;5018915;28;20414;-85
2023/04/09 00:26:00;;;;;;;17.83;9.30;;;7.80;99.90;;;;;;5020449;28;20173;-85
2023/04/09 00:28:25;;;;;;;13.15;7.65;;;7.50;99.90;;;;;;5021254;28;20630;-85
2023/04/09 00:30:51;;;;;;;18.87;9.17;;;7.50;99.90;;;;;;5019337;28;20206;-84
2023/04/09 00:33:17;;;;;;;16.10;8.50;;;7.60;99.90;;;;;;5021086;28;20171;-85
2023/04/09 00:35:42;;;;;;;18.07;10.80;;;7.60;99.90;;;;;;5020886;28;20232;-87
2023/04/09 00:38:08;;;;;;;16.97;9.10;;;7.50;99.90;;;;;;5018945;28;20213;-87
2023/04/09 00:40:33;;;;;;;17.60;10.10;;;7.60;99.90;;;;;;5018641;28;20203;-86
2023/04/09 00:42:59;;;;;;;14.00;7.37;;;7.60;99.90;;;;;;5019714;28;20155;-87
2023/04/09 00:45:25;;;;;;;14.32;9.27;;;7.40;99.90;;;;;;5017285;28;20174;-87
2023/04/09 00:47:51;;;;;;;15.23;8.40;;;7.40;99.90;;;;;;5017138;28;20182;-86
2023/04/09 00:50:17;;;;;;;15.03;8.23;;;7.20;99.90;;;;;;5015165;28;20194;-86
2023/04/09 00:52:43;;;;;;;12.45;7.82;;;7.10;99.90;;;;;;5016081;28;20202;-87
2023/04/09 00:55:09;;;;;;;14.30;8.37;;;7.00;99.90;;;;;;5016941;28;20178;-87
2023/04/09 00:57:35;;;;;;;16.10;8.43;;;;;;;;;;5018498;28;20194;-86
2023/04/09 01:00:03;;;;;;;11.23;7.70;;;;;;;;;;5018679;28;20449;-86
2023/04/09 01:02:29;;;;;;;15.90;9.02;;;;;;;;;;5039901;28;20369;-86
2023/04/09 01:04:55;;;;;;;15.82;8.95;;;6.50;99.90;;;;;;5022588;28;20233;-85
2023/04/09 01:07:21;;;;;;;17.07;8.90;;;;;;;;;;5036935;28;20638;-86
2023/04/09 01:09:57;;;;;;;15.50;9.23;;;6.40;99.90;;;;;;5027066;28;20983;-86
2023/04/09 01:12:46;;;;;;;13.05;9.25;;;6.40;99.90;;;;;;5021738;28;20413;-86
2023/04/09 01:15:25;;;;;;;19.85;10.98;;;6.50;99.90;;;;;;5012383;28;20219;-85
2023/04/09 01:18:06;;;;;;;16.80;7.57;;;6.60;99.90;;;;;;5019198;28;20178;-86
2023/04/09 01:20:40;;;;;;;15.65;8.88;;;6.60;99.90;;;;;;5004925;28;20213;-86
2023/04/09 01:23:24;;;;;;;12.63;7.93;;;6.70;99.90;;;;;;5008999;28;20173;-86
2023/04/09 01:26:18;;;;;;;14.63;8.40;;;6.80;99.90;;;;;;5017384;28;20182;-85
2023/04/09 01:28:47;;;;;;;14.35;8.30;;;6.80;99.90;;;;;;5019562;28;20206;-86
2023/04/09 01:31:16;;;;;;;15.80;7.93;;;6.80;99.90;;;;;;5007010;28;20199;-87
2023/04/09 01:33:42;;;;;;;15.05;8.80;;;6.90;99.90;;;;;;5016146;28;20178;-86
2023/04/09 01:36:09;;;;;;;13.23;7.45;;;6.80;99.90;;;;;;5026748;28;20181;-85
2023/04/09 01:38:36;;;;;;;16.77;8.10;;;6.80;99.90;;;;;;5033584;28;20246;-87
2023/04/09 01:41:03;;;;;;;12.98;7.38;;;6.80;99.90;;;;;;5012348;28;20213;-87
2023/04/09 01:43:31;;;;;;;14.90;8.13;;;6.80;99.90;;;;;;5022351;28;20171;-87
2023/04/09 01:45:58;;;;;;;14.52;8.40;;;6.80;99.90;;;;;;5020713;28;20260;-85
2023/04/09 01:48:25;;;;;;;15.18;7.82;;;6.50;99.90;;;;;;5020729;28;20254;-85
2023/04/09 01:50:51;;;;;;;18.98;9.80;;;6.60;99.90;;;;;;5020810;28;20202;-86
2023/04/09 01:53:17;;;;;;;16.42;9.32;;;6.40;99.90;;;;;;5026584;28;20184;-86
2023/04/09 01:55:42;;;;;;;15.30;9.30;;;6.40;99.90;;;;;;5035685;28;20182;-86
2023/04/09 01:58:08;;;;;;;18.40;9.60;;;6.40;99.90;;;;;;5020108;28;20178;-85
2023/04/09 02:00:58;;;;;;;12.43;7.70;;;6.70;99.90;;;;;;5019641;28;20301;-86
2023/04/09 02:03:29;;;;;;;16.42;8.27;;;6.40;99.90;;;;;;5019586;28;20225;-86
2023/04/09 02:06:16;;;;;;;18.80;9.27;;;6.30;99.90;;;;;;5018794;28;20264;-85
2023/04/09 02:08:45;;;;;;;12.05;7.45;;;6.30;99.90;;;;;;5020028;28;20178;-85
2023/04/09 02:11:12;;;;;;;15.75;7.45;;;6.30;99.90;;;;;;5019549;28;20179;-86
2023/04/09 02:13:40;;;;;;;15.27;8.00;;;6.30;99.90;;;;;;5011807;28;20286;-88
2023/04/09 02:16:07;;;;;;;18.88;8.20;;;6.20;99.90;;;;;;5006763;28;20170;-86
2023/04/09 02:18:33;;;;;;;13.73;7.32;;;5.90;99.90;;;;;;5004117;28;20183;-87
2023/04/09 02:20:59;;;;;;;16.13;7.77;;;5.90;99.90;;;;;;5010385;28;20214;-86
2023/04/09 02:23:26;;;;;;;18.40;9.20;;;5.80;99.90;;;;;;5010854;28;20313;-86
2023/04/09 02:25:52;;;;;;;18.95;10.18;;;5.90;99.90;;;;;;5007935;28;20423;-86
2023/04/09 02:28:18;;;;;;;14.13;7.65;;;5.90;99.90;;;;;;5005522;28;20183;-87
2023/04/09 02:30:43;;;;;;;16.43;8.20;;;5.80;99.90;;;;;;5003520;28;20208;-87
2023/04/09 02:33:09;;;;;;;17.80;8.20;;;5.70;99.90;;;;;;5002817;28;20257;-88
2023/04/09 02:35:34;;;;;;;16.13;8.97;;;5.70;99.90;;;;;;5019915;28;20190;-88
2023/04/09 02:38:01;;;;;;;11.70;6.60;;;5.60;99.90;;;;;;5002427;28;20191;-86
2023/04/09 02:40:26;;;;;;;18.10;9.18;;;5.50;99.90;;;;;;5002324;28;20218;-87
2023/04/09 02:42:52;;;;;;;16.10;8.73;;;5.50;99.90;;;;;;5002275;28;20261;-87
2023/04/09 02:45:18;;;;;;;20.83;9.98;;;5.50;99.90;;;;;;5003940;28;20555;-87
2023/04/09 02:47:43;;;;;;;15.50;8.40;;;5.20;99.90;;;;;;5002390;28;20178;-87
2023/04/09 02:50:09;;;;;;;19.27;9.10;;;5.20;99.90;;;;;;5004573;28;20195;-87
2023/04/09 02:52:35;;;;;;;16.57;7.77;;;5.10;99.90;;;;;;5009067;28;20237;-87
2023/04/09 02:55:01;;;;;;;14.93;8.90;;;;;;;;;;5019808;28;20174;-86
2023/04/09 02:57:26;;;;;;;20.75;9.85;;;5.10;99.90;;;;;;5037091;28;20193;-85
2023/04/09 02:59:52;;;;;;;18.40;9.73;;;5.20;99.90;;;;;;5020329;28;20210;-85
2023/04/09 03:02:17;;;;;;;15.67;8.70;;;5.20;99.90;;;;;;5020125;28;20241;-87
2023/04/09 03:04:43;;;;;;;17.17;8.17;;;5.10;99.90;;;;;;5030659;28;20259;-85
2023/04/09 03:07:08;;;;;;;14.60;8.60;;;5.10;99.90;;;;;;5035024;28;20167;-86
2023/04/09 03:09:34;;;;;;;10.77;7.03;;;5.00;99.90;;;;;;5034880;28;20677;-86
2023/04/09 03:12:00;;;;;;;16.83;8.00;;;5.10;99.90;;;;;;5036195;28;20178;-86
2023/04/09 03:14:26;;;;;;;15.70;8.68;;;5.10;99.90;;;;;;5021388;28;20171;-86
2023/04/09 03:16:52;;;;;;;19.40;8.90;;;5.00;99.90;;;;;;5021073;28;20174;-86
2023/04/09 03:19:17;;;;;;;17.10;8.83;;;5.00;99.90;;;;;;5020109;28;20621;-84
2023/04/09 03:21:43;;;;;;;18.40;8.30;;;5.10;99.90;;;;;;5018789;28;20305;-85
2023/04/09 03:24:08;;;;;;;19.27;9.30;;;5.20;99.90;;;;;;5017547;28;20524;-87
2023/04/09 03:26:37;;;;;;;18.33;8.03;;;5.10;99.90;;;;;;5013527;28;20165;-86
2023/04/09 03:29:03;;;;;;;19.75;9.70;;;5.10;99.90;;;;;;5011956;28;20203;-87
2023/04/09 03:31:29;;;;;;;19.80;10.23;;;5.00;99.90;;;;;;5001652;28;20179;-86
2023/04/09 03:33:55;;;;;;;19.40;9.10;;;5.10;99.90;;;;;;4996439;28;20178;-87
2023/04/09 03:36:20;;;;;;;16.67;8.43;;;5.10;99.90;;;;;;5022580;28;20181;-86
2023/04/09 03:38:46;;;;;;;18.27;9.43;;;5.20;99.90;;;;;;5015467;28;20206;-85
2023/04/09 03:41:11;;;;;;;16.80;9.33;;;;;;;;;;5011504;28;20179;-86
2023/04/09 03:43:37;;;;;;;21.43;10.90;;;5.30;99.90;;;;;;5030222;28;20167;-87
2023/04/09 03:46:13;;;;;;;22.07;9.77;;;5.30;99.90;;;;;;5015954;28;20421;-86
2023/04/09 03:48:40;;;;;;;16.40;8.85;;;5.40;99.90;;;;;;5015990;28;20182;-85
2023/04/09 03:51:05;;;;;;;16.02;9.70;;;5.30;99.90;;;;;;5016032;28;20175;-85
2023/04/09 03:53:31;;;;;;;19.10;9.40;;;5.30;99.90;;;;;;5021555;28;20178;-86
2023/04/09 03:55:56;;;;;;;19.70;8.50;;;5.30;99.90;;;;;;5024051;28;20523;-86
2023/04/09 03:58:22;;;;;;;17.23;9.40;;;5.40;99.90;;;;;;5015249;28;20265;-86
2023/04/09 04:00:47;;;;;;;20.47;9.53;;;5.40;99.90;;;;;;5017324;28;20206;-86
2023/04/09 04:03:15;;;;;;;21.60;10.03;;;5.50;99.90;;;;;;5017601;28;20241;-86
2023/04/09 04:05:41;;;;;;;16.50;8.57;;;5.50;99.90;;;;;;5011395;28;20249;-87
2023/04/09 04:08:06;;;;;;;17.35;8.95;;;5.50;99.90;;;;;;5015004;28;20179;-86
2023/04/09 04:10:33;;;;;;;19.13;8.83;;;5.40;99.90;;;;;;5018140;28;20218;-86
2023/04/09 04:12:59;;;;;;;17.65;9.73;;;5.40;99.90;;;;;;5018626;28;20190;-85
2023/04/09 04:15:24;;;;;;;21.33;9.97;;;5.50;99.90;;;;;;5018130;28;20185;-86
2023/04/09 04:17:50;;;;;;;18.07;8.87;;;5.50;99.90;;;;;;5018520;28;20185;-85
2023/04/09 04:20:15;;;;;;;17.90;9.97;;;5.50;99.90;;;;;;5016365;28;20206;-86
2023/04/09 04:22:41;;;;;;;21.57;9.83;;;5.40;99.90;;;;;;5016811;28;20645;-87
2023/04/09 04:25:06;;;;;;;20.67;9.83;;;5.40;99.90;;;;;;5017643;28;20155;-87
2023/04/09 04:27:32;;;;;;;19.30;10.50;;;5.40;99.90;;;;;;5001656;28;20172;-85
2023/04/09 04:29:58;;;;;;;21.07;9.83;;;5.50;99.90;;;;;;5003928;28;20285;-86
2023/04/09 04:32:24;;;;;;;16.67;8.90;;;5.50;99.90;;;;;;5004707;28;20759;-86
2023/04/09 04:34:50;;;;;;;16.92;9.65;;;5.50;99.90;;;;;;5002668;28;20722;-86
2023/04/09 04:37:16;;;;;;;17.83;9.37;;;5.60;99.90;;;;;;5018202;28;20248;-85
2023/04/09 04:39:41;;;;;;;18.13;9.80;;;5.70;99.90;;;;;;5009029;28;20670;-87
2023/04/09 04:42:07;;;;;;;23.13;9.60;;;5.70;99.90;;;;;;5002780;28;20250;-87
2023/04/09 04:44:32;;;;;;;16.63;9.13;;;5.60;99.90;;;;;;5005267;28;20202;-85
2023/04/09 04:46:58;;;;;;;21.00;11.10;;;5.60;99.90;;;;;;5005304;28;20171;-87
2023/04/09 04:49:24;;;;;;;17.93;10.10;;;5.70;99.90;;;;;;5002808;28;21188;-87
2023/04/09 04:51:50;;;;;;;22.40;10.55;;;5.60;99.90;;;;;;5005199;28;20175;-88
2023/04/09 04:54:15;;;;;;;19.77;10.40;;;5.50;99.90;;;;;;5009332;28;20767;-88
2023/04/09 04:56:41;;;;;;;16.13;9.33;;;5.40;99.90;;;;;;5010681;28;20186;-86
2023/04/09 04:59:10;;;;;;;18.13;9.97;;;5.40;99.90;;;;;;5017333;28;20266;-87
2023/04/09 05:01:35;;;;;;;19.52;9.45;;;5.40;99.90;;;;;;5013000;28;20735;-85
2023/04/09 05:04:02;;;;;;;18.83;10.00;;;5.50;99.90;;;;;;5006632;28;20198;-85
2023/04/09 05:06:28;;;;;;;21.75;10.10;;;7.90;99.90;;;;;;5006512;28;20167;-85
2023/04/09 05:08:56;;;;;;;18.43;10.03;;;5.00;99.90;;;;;;5005776;28;20233;-86
2023/04/09 05:11:23;;;;;;;16.45;9.82;;;5.30;99.90;;;;;;5020588;28;20179;-85
2023/04/09 05:13:49;;;;;;;18.80;9.90;;;5.70;99.90;;;;;;5013057;28;20179;-85
2023/04/09 05:16:16;;;;;;;19.97;10.07;;;5.50;99.90;;;;;;5029842;28;20230;-86
2023/04/09 05:18:42;;;;;;;18.23;10.35;;;5.60;99.90;;;;;;5018174;28;20182;-86
2023/04/09 05:21:07;;;;;;;15.17;8.67;;;5.60;99.90;;;;;;5014741;28;20206;-86
2023/04/09 05:23:33;;;;;;;21.00;10.63;;;5.80;99.90;;;;;;5008896;28;20186;-88
2023/04/09 05:25:59;;;;;;;20.70;10.50;;;;;;;;;;5008104;28;20290;-86
2023/04/09 05:28:24;;;;;;;15.00;8.33;;;6.00;99.90;;;;;;5023784;28;20187;-86
2023/04/09 05:30:50;;;;;;;18.80;8.87;;;6.10;99.90;;;;;;5016802;28;21021;-87
2023/04/09 05:33:16;;;;;;;18.63;9.50;;;6.30;99.90;;;;;;5020912;28;20182;-86
2023/04/09 05:35:41;;;;;;;19.83;9.50;;;6.30;99.90;;;;;;5037956;28;20185;-87
2023/04/09 05:38:07;;;;;;;20.03;9.03;;;7.40;99.90;;;;;;5009881;28;20231;-86
2023/04/09 05:40:33;;;;;;;16.67;10.70;;;6.60;99.90;;;;;;5022831;28;20365;-84
2023/04/09 05:42:58;;;;;;;13.90;8.13;;;6.40;99.90;;;;;;5023879;28;20202;-84
2023/04/09 05:45:24;;;;;;;12.90;8.60;;;6.50;99.90;;;;;;5023659;28;20424;-86
2023/04/09 05:47:49;;;;;;;15.33;9.87;;;6.60;99.90;;;;;;5038479;28;20239;-85
2023/04/09 05:50:15;;;;;;;16.63;9.77;;;6.80;99.90;;;;;;5015424;28;20198;-86
2023/04/09 05:52:40;;;;;;;16.97;8.80;;;6.80;99.90;;;;;;5010806;28;20170;-87
2023/04/09 05:55:08;;;;;;;16.60;10.00;;;7.00;99.90;;;;;;5007383;28;20178;-86
2023/04/09 05:57:34;;;;;;;21.52;10.05;;;7.30;99.90;;;;;;5008417;28;20560;-86
2023/04/09 05:59:59;;;;;;;22.07;11.43;;;7.60;99.90;;;;;;5007776;28;20297;-85
2023/04/09 06:02:25;;;;;;;21.80;12.90;;;;;;;;;;5007097;28;20251;-86
2023/04/09 06:04:51;;;;;;;17.25;10.55;;;8.00;99.90;;;;;;5008890;28;20246;-83
2023/04/09 06:07:16;;;;;;;17.50;9.07;;;8.20;99.90;;;;;;5019696;28;20248;-83
2023/04/09 06:09:48;;;;;;;18.97;10.73;;;8.50;99.90;;;;;;5024053;28;20182;-84
2023/04/09 06:12:14;;;;;;;20.42;11.85;;;9.20;99.90;;;;;;5023756;28;20175;-84
2023/04/09 06:14:40;;;;;;;21.80;12.50;;;9.20;99.90;;;;;;5021863;28;20190;-84
2023/04/09 06:17:05;;;;;;;29.80;13.00;;;9.70;99.90;;;;;;5023294;28;20429;-86
2023/04/09 06:19:31;;;;;;;24.73;13.00;;;9.70;99.90;;;;;;5003141;28;20203;-85
2023/04/09 06:21:56;;;;;;;22.00;12.93;;;9.80;99.90;;;;;;5003790;28;20644;-85
2023/04/09 06:24:22;;;;;;;23.80;13.70;;;10.10;99.90;;;;;;5003771;28;20175;-84
2023/04/09 06:26:48;;;;;;;22.93;12.80;;;10.00;99.90;;;;;;5014026;28;20171;-84
2023/04/09 06:29:13;;;;;;;19.67;13.20;;;;;;;;;;5025904;28;20197;-84
2023/04/09 06:31:39;;;;;;;24.57;13.77;;;10.40;99.90;;;;;;5039081;28;20270;-85
2023/04/09 06:34:05;;;;;;;21.37;12.57;;;11.10;99.90;;;;;;5038965;28;20414;-85
2023/04/09 06:36:31;;;;;;;23.20;14.17;;;11.10;99.90;;;;;;5024531;28;20517;-82
2023/04/09 06:38:58;;;;;;;18.27;12.25;;;11.50;99.90;;;;;;5008897;28;20306;-84
2023/04/09 06:41:23;;;;;;;20.92;11.90;;;12.10;99.90;;;;;;5021536;28;20403;-84
2023/04/09 06:43:49;;;;;;;23.50;13.57;;;12.50;99.90;;;;;;5022798;28;20174;-83
2023/04/09 06:46:18;;;;;;;21.43;12.03;;;12.50;99.90;;;;;;5022271;28;20428;-83
2023/04/09 06:48:44;;;;;;;16.13;10.10;;;13.30;99.90;;;;;;5023590;28;20262;-83
2023/04/09 06:51:10;;;;;;;19.63;10.83;;;13.40;99.90;;;;;;5024376;28;20210;-83
2023/04/09 06:53:37;;;;;;;21.83;12.35;;;13.40;99.90;;;;;;5022577;28;20416;-84
2023/04/09 06:56:03;;;;;;;21.08;13.30;;;13.10;99.90;;;;;;5016690;28;20202;-84
2023/04/09 06:58:28;;;;;;;17.87;11.20;;;14.10;99.90;;;;;;5012303;28;20246;-84
2023/04/09 07:00:54;;;;;;;18.07;10.80;;;14.20;99.90;;;;;;5029823;28;20221;-83
2023/04/09 07:03:19;;;;;;;23.20;12.20;;;14.60;99.90;;;;;;5016312;28;20703;-84
2023/04/09 07:05:45;;;;;;;17.87;11.17;;;15.80;99.90;;;;;;5013666;28;20179;-84
2023/04/09 07:08:11;;;;;;;16.40;11.33;;;;;;;;;;5011855;28;20523;-84
2023/04/09 07:10:37;;;;;;;18.00;12.70;;;23.40;99.90;;;;;;5012194;28;20202;-84
2023/04/09 07:13:03;;;;;;;16.23;11.37;;;;;;;;;;5017642;28;20426;-84
2023/04/09 07:15:29;;;;;;;15.90;11.23;;;;;;;;;;5017567;28;20186;-84
2023/04/09 07:17:56;;;;;;;17.27;12.73;;;;;;;;;;5034056;28;20529;-83
2023/04/09 07:20:22;;;;;;;15.57;11.40;;;;;;;;;;5022074;28;20456;-84
2023/04/09 07:22:48;;;;;;;18.03;12.53;;;;;;;;;;5022097;28;20408;-84
2023/04/09 07:25:14;;;;;;;13.70;11.60;;;30.20;49.50;;;;;;5022005;28;20400;-84
2023/04/09 07:27:41;;;;;;;14.43;12.07;;;;;;;;;;5021498;28;20417;-84
2023/04/09 07:30:07;;;;;;;15.90;12.47;;;;;;;;;;5023562;28;20765;-84
2023/04/09 07:32:33;;;;;;;16.30;13.00;;;;;;;;;;5015297;28;20433;-85
2023/04/09 07:35:01;;;;;;;16.90;13.07;;;;;;;;;;5026223;28;20454;-86
2023/04/09 07:37:27;;;;;;;16.03;12.40;;;;;;;;;;5005579;28;20470;-83
2023/04/09 07:39:52;;;;;;;20.13;13.07;;;28.50;47.10;;;;;;5028981;28;20469;-83
2023/04/09 07:42:18;;;;;;;15.10;12.67;;;27.70;48.00;;;;;;5005938;28;20434;-81
2023/04/09 07:44:43;;;;;;;16.33;13.00;;;27.70;48.70;;;;;;4997497;28;20673;-81
2023/04/09 07:47:10;;;;;;;15.40;11.47;;;28.00;47.50;;;;;;5000753;28;20191;-82
2023/04/09 07:49:36;;;;;;;14.40;11.57;;;28.30;48.00;;;;;;5003916;28;21454;-82
2023/04/09 07:52:03;;;;;;;15.40;12.60;;;28.20;48.50;;;;;;5001555;28;20432;-82
2023/04/09 07:54:30;;;;;;;16.10;12.17;;;28.30;47.40;;;;;;5000844;28;20443;-81
2023/04/09 07:57:00;;;;;;;12.93;11.33;;;24.90;49.20;;;;;;5003600;28;20441;-81
2023/04/09 07:59:26;;;;;;;17.30;13.17;;;23.50;51.10;;;;;;5007212;28;20500;-81
2023/04/09 08:01:52;;;;;;;20.00;12.63;;;21.70;53.40;;;;;;5005852;28;20441;-81
2023/04/09 08:04:18;;;;;;;17.37;12.10;;;21.60;53.80;;;;;;5005850;28;20427;-81
2023/04/09 08:06:48;;;;;;;19.17;12.53;;;22.20;56.30;;;;;;5007951;28;20438;-81
2023/04/09 08:09:18;;;;;;;15.50;11.37;;;23.20;56.40;;;;;;5005406;28;20194;-82
2023/04/09 08:11:47;;;;;;;15.10;10.90;;;24.20;54.00;;;;;;5007130;28;20437;-81
2023/04/09 08:14:13;;;;;;;18.17;12.60;;;24.70;53.00;;;;;;5009690;28;20493;-82
2023/04/09 08:16:41;;;;;;;15.07;11.83;;;24.40;53.80;;;;;;5012279;28;20869;-81
2023/04/09 08:19:08;;;;;;;15.60;11.47;;;22.90;52.40;;;;;;5011027;28;20450;-81
2023/04/09 08:21:35;;;;;;;19.77;14.03;;;22.40;53.60;;;;;;5014113;28;20443;-82
2023/04/09 08:24:03;;;;;;;17.17;11.60;;;;;;;;;;5012605;28;20437;-82
2023/04/09 08:26:29;;;;;;;12.07;10.33;;;20.30;57.80;;;;;;5011627;28;20429;-82
2023/04/09 08:28:55;;;;;;;14.87;10.80;;;21.10;57.40;;;;;;5014572;28;20808;-81
2023/04/09 08:31:21;;;;;;;13.63;10.03;;;22.20;56.80;;;;;;5012343;28;20434;-82
2023/04/09 08:33:46;;;;;;;13.30;11.10;;;22.50;55.00;;;;;;5025520;28;20234;-83
2023/04/09 08:36:12;;;;;;;17.13;11.00;;;;;;;;;;5012582;28;20217;-82
2023/04/09 08:38:38;;;;;;;14.00;10.77;;;25.50;51.80;;;;;;5009933;28;20302;-82
2023/04/09 08:41:04;;;;;;;16.40;10.70;;;25.50;52.10;;;;;;5012567;28;20960;-82
2023/04/09 08:43:31;;;;;;;13.20;10.47;;;25.50;50.90;;;;;;5008650;28;20270;-82
2023/04/09 08:45:58;;;;;;;13.40;10.40;;;;;;;;;;5007169;28;20452;-82
2023/04/09 08:48:24;;;;;;;17.27;13.00;;;28.50;47.10;;;;;;5010178;28;20429;-82
2023/04/09 08:50:50;;;;;;;12.70;10.50;;;28.50;47.60;;;;;;5015952;28;20459;-83
2023/04/09 08:53:18;;;;;;;14.13;11.40;;;27.40;47.00;;;;;;5013408;28;20425;-83
2023/04/09 08:55:45;;;;;;;14.90;11.40;;;26.20;46.80;;;;;;5011441;28;20999;-82
2023/04/09 08:58:11;;;;;;;12.50;10.40;;;;;;;;;;5012075;28;20845;-82
2023/04/09 09:00:36;;;;;;;12.60;10.67;;;26.70;48.50;;;;;;5027770;28;20546;-82
2023/04/09 09:03:11;;;;;;;14.57;11.20;;;25.50;47.50;;;;;;5011344;28;20460;-82
2023/04/09 09:05:42;;;;;;;15.37;11.00;;;25.30;47.50;;;;;;5010014;28;20218;-82
2023/04/09 09:08:09;;;;;;;14.07;10.13;;;21.70;51.20;;;;;;5009771;28;20773;-82
2023/04/09 09:10:45;;;;;;;12.07;9.43;;;21.70;51.70;;;;;;5010116;28;20449;-82
2023/04/09 09:13:24;;;;;;;10.17;8.03;;;22.10;48.10;;;;;;5011047;28;22132;-82
2023/04/09 09:15:54;;;;;;;10.60;8.60;;;22.10;48.90;;;;;;5011361;28;20450;-82
2023/04/09 09:18:20;;;;;;;8.10;6.57;;;22.10;50.90;;;;;;5026048;28;20446;-82
2023/04/09 09:20:46;;;;;;;11.43;8.33;;;22.30;48.80;;;;;;5007298;28;20513;-82
2023/04/09 09:23:12;;;;;;;10.10;8.40;;;22.00;50.30;;;;;;5006115;28;21153;-82
2023/04/09 09:25:39;;;;;;;13.17;8.80;;;22.30;49.80;;;;;;5009902;28;20194;-81
2023/04/09 09:28:10;;;;;;;10.13;8.00;;;22.20;50.20;;;;;;5010818;28;20478;-81
2023/04/09 09:30:37;;;;;;;10.60;7.93;;;20.20;49.90;;;;;;5009979;28;20477;-83
2023/04/09 09:33:07;;;;;;;12.57;8.70;;;18.60;53.30;;;;;;5008547;28;20445;-83
2023/04/09 09:35:50;;;;;;;12.50;9.60;;;17.20;54.60;;;;;;5010196;28;20795;-84
2023/04/09 09:38:17;;;;;;;14.47;9.23;;;16.60;58.40;;;;;;5001930;28;20449;-83
2023/04/09 09:40:43;;;;;;;11.40;8.53;;;17.90;58.00;;;;;;5011647;28;20499;-84
2023/04/09 09:43:09;;;;;;;13.13;8.90;;;20.70;58.40;;;;;;5004555;28;20505;-83
2023/04/09 09:45:36;;;;;;;11.07;7.33;;;20.70;58.30;;;;;;5009601;28;20457;-83
2023/04/09 09:48:05;;;;;;;12.27;7.83;;;20.60;50.70;;;;;;5011671;28;20472;-83
2023/04/09 09:50:33;;;;;;;9.27;7.57;;;19.60;51.80;;;;;;5009525;28;20468;-82
2023/04/09 09:53:04;;;;;;;13.03;9.30;;;18.90;54.10;;;;;;5010553;28;20425;-82
2023/04/09 09:55:31;;;;;;;12.93;9.50;;;18.80;55.00;;;;;;5013064;28;20429;-83
2023/04/09 09:58:02;;;;;;;12.10;8.67;;;20.00;54.70;;;;;;5010029;28;20452;-83
2023/04/09 10:00:31;;;;;;;13.37;9.13;;;21.80;53.80;;;;;;5010567;28;21488;-83
2023/04/09 10:03:11;;;;;;;13.27;8.67;;;21.90;54.30;;;;;;5007206;28;20433;-83
2023/04/09 10:05:39;;;;;;;11.47;8.03;;;20.90;51.90;;;;;;5008383;28;20434;-82
2023/04/09 10:08:05;;;;;;;10.83;7.43;;;20.00;52.50;;;;;;5010098;28;20430;-83
2023/04/09 10:10:32;;;;;;;15.43;9.70;;;19.40;53.10;;;;;;5010907;28;20525;-83
2023/04/09 10:12:58;;;;;;;8.03;5.13;;;18.50;49.40;;;;;;5010342;28;20441;-83
2023/04/09 10:15:27;;;;;;;4.70;3.60;;;18.40;49.80;;;;;;5013044;28;20429;-83
2023/04/09 10:17:53;;;;;;;4.87;3.53;;;18.00;47.70;;;;;;5004626;28;20957;-83
2023/04/09 10:20:26;;;;;;;7.30;4.37;;;16.30;47.70;;;;;;5001308;28;20874;-82
2023/04/09 10:22:52;;;;;;;6.10;4.53;;;16.20;48.40;;;;;;5006523;28;20434;-83
2023/04/09 10:25:19;;;;;;;10.93;5.20;;;15.50;50.90;;;;;;5006789;28;20437;-80
2023/04/09 10:27:47;;;;;;;6.60;3.80;;;15.40;52.30;;;;;;5007220;28;20517;-83
2023/04/09 10:30:32;;;;;;;4.90;3.70;;;15.30;51.90;;;;;;5005458;28;20481;-82
2023/04/09 10:33:14;;;;;;;5.53;4.47;;;15.90;50.90;;;;;;5001375;28;20444;-82
2023/04/09 10:35:41;;;;;;;9.10;5.30;;;15.90;50.10;;;;;;5004355;28;20463;-82
2023/04/09 10:38:08;;;;;;;4.53;3.40;;;15.80;50.50;;;;;;5003789;28;20473;-82
2023/04/09 10:40:35;;;;;;;6.90;4.30;;;15.80;50.60;;;;;;5001665;28;20462;-82
2023/04/09 10:43:02;;;;;;;5.17;3.97;;;16.20;50.80;;;;;;5015864;28;20434;-82
2023/04/09 10:45:40;;;;;;;5.60;3.73;;;15.50;51.90;;;;;;5002076;28;20461;-82
2023/04/09 10:48:13;;;;;;;8.90;4.80;;;15.60;51.20;;;;;;5005771;28;21112;-82
2023/04/09 10:50:41;;;;;;;5.70;4.00;;;15.40;51.80;;;;;;5007830;28;20449;-80
2023/04/09 10:53:23;;;;;;;4.33;3.53;;;15.20;53.60;;;;;;5009254;28;20433;-81
2023/04/09 10:55:51;;;;;;;6.40;5.20;;;15.20;53.50;;;;;;5004862;28;20433;-80
2023/04/09 10:58:17;;;;;;;6.57;4.03;;;14.90;52.10;;;;;;5008324;28;20578;-80
2023/04/09 11:00:45;;;;;;;6.00;4.70;;;14.80;52.50;;;;;;5002110;28;20634;-81
2023/04/09 11:03:41;;;;;;;5.93;4.30;;;15.30;53.70;;;;;;5000622;28;20453;-80
2023/04/09 11:06:09;;;;;;;5.17;3.90;;;16.10;52.60;;;;;;5000566;28;20460;-81
2023/04/09 11:08:36;;;;;;;5.80;5.07;;;16.10;52.20;;;;;;4999981;28;20423;-81
2023/04/09 11:11:03;;;;;;;9.77;6.60;;;16.10;52.70;;;;;;5001608;28;20425;-81
2023/04/09 11:13:30;;;;;;;5.67;4.37;;;16.20;53.10;;;;;;5000945;28;20510;-81
2023/04/09 11:15:57;;;;;;;4.50;3.63;;;16.00;51.90;;;;;;5003435;28;20437;-81
2023/04/09 11:18:24;;;;;;;3.90;2.70;;;16.00;52.70;;;;;;5000022;28;20482;-81
2023/04/09 11:21:01;;;;;;;4.40;3.20;;;15.50;48.00;;;;;;5001329;28;20473;-81
2023/04/09 11:23:27;;;;;;;2.13;1.90;;;14.70;49.70;;;;;;5001535;28;20973;-81
2023/04/09 11:25:54;;;;;;;4.50;3.50;;;14.70;49.80;;;;;;5003937;28;20506;-81
2023/04/09 11:28:20;;;;;;;4.60;3.40;;;14.90;50.60;;;;;;5006546;28;20919;-81
2023/04/09 11:30:45;;;;;;;4.80;3.20;;;15.20;52.60;;;;;;5002624;28;21505;-81
2023/04/09 11:33:11;;;;;;;2.73;2.00;;;15.20;51.60;;;;;;5000621;28;20462;-81
2023/04/09 11:35:37;;;;;;;5.80;4.00;;;14.70;49.50;;;;;;4998246;28;20583;-79
2023/04/09 11:38:10;;;;;;;4.70;3.70;;;14.40;50.30;;;;;;5003356;28;20449;-80
2023/04/09 11:40:44;;;;;;;4.97;3.13;;;14.40;51.50;;;;;;5003398;28;20203;-80
2023/04/09 11:43:10;;;;;;;5.00;3.70;;;14.60;51.30;;;;;;5003110;28;20468;-81
2023/04/09 11:45:36;;;;;;;4.63;3.50;;;14.50;51.50;;;;;;5002640;28;20425;-80
2023/04/09 11:48:02;;;;;;;4.63;3.47;;;14.40;51.90;;;;;;5001944;28;20481;-79
2023/04/09 11:50:28;;;;;;;5.60;3.10;;;14.20;52.20;;;;;;4999654;28;20461;-80
2023/04/09 11:52:53;;;;;;;4.40;3.27;;;13.60;52.70;;;;;;5000226;28;20448;-80
2023/04/09 11:55:27;;;;;;;4.17;3.40;;;13.50;53.00;;;;;;5001860;28;20487;-81
2023/04/09 11:57:56;;;;;;;4.80;3.17;;;13.60;54.70;;;;;;4999722;28;20308;-82
2023/04/09 12:00:23;;;;;;;5.67;4.07;;;14.20;52.90;;;;;;5000415;28;20214;-83
2023/04/09 12:02:57;;;;;;;5.23;3.50;;;14.10;52.90;;;;;;5000451;28;20430;-80
2023/04/09 12:05:27;;;;;;;6.53;3.60;;;14.30;54.40;;;;;;5002044;28;20425;-79
2023/04/09 12:08:03;;;;;;;6.67;3.63;;;14.40;53.50;;;;;;5002889;28;20417;-80
2023/04/09 12:10:35;;;;;;;6.43;3.67;;;14.50;53.20;;;;;;5002314;28;20453;-82
2023/04/09 12:13:02;;;;;;;4.18;3.65;;;14.40;53.30;;;;;;4996480;28;20466;-82
2023/04/09 12:15:32;;;;;;;3.73;2.70;;;14.40;53.70;;;;;;4997692;28;20264;-82
2023/04/09 12:17:58;;;;;;;4.93;3.40;;;14.10;54.30;;;;;;4999711;28;20436;-81
2023/04/09 12:20:38;;;;;;;4.27;3.57;;;13.80;53.90;;;;;;4999506;28;21185;-82
2023/04/09 12:23:05;;;;;;;3.23;2.80;;;14.00;55.00;;;;;;4997472;28;20508;-82
2023/04/09 12:25:34;;;;;;;6.00;3.83;;;14.50;52.10;;;;;;4999997;28;20443;-82
2023/04/09 12:28:00;;;;;;;4.20;3.50;;;14.50;52.40;;;;;;5004963;28;20473;-82
2023/04/09 12:30:26;;;;;;;5.60;3.60;;;14.40;53.10;;;;;;5000332;28;20457;-83
2023/04/09 12:32:52;;;;;;;7.30;4.20;;;14.20;52.10;;;;;;4999548;28;20519;-82
2023/04/09 12:35:18;;;;;;;5.20;3.37;;;14.20;52.60;;;;;;4998707;28;20985;-81
2023/04/09 12:37:44;;;;;;;4.40;3.07;;;14.10;52.30;;;;;;4997161;28;20474;-82
2023/04/09 12:40:14;;;;;;;4.47;3.97;;;14.10;52.90;;;;;;5000107;28;20465;-82
2023/04/09 12:42:43;;;;;;;6.47;3.90;;;13.80;54.00;;;;;;4999780;28;20444;-82
2023/04/09 12:45:11;;;;;;;4.67;3.00;;;14.10;54.50;;;;;;5001521;28;20533;-82
2023/04/09 12:47:38;;;;;;;5.27;3.60;;;14.10;54.70;;;;;;5001443;28;20433;-82
2023/04/09 12:50:04;;;;;;;4.10;3.17;;;14.20;54.70;;;;;;4996285;28;20486;-79
2023/04/09 12:52:30;;;;;;;4.00;3.07;;;14.50;55.60;;;;;;4998964;28;20437;-81